sensor_id;sensor_type;location;lat;lon;timestamp;pressure;altitude;pressure_sealevel;temperature;humidity
11912;BME280;6016;41.928;25.556;2023-04-20T00:00:04;98522.78;;;12.79;82.26
11912;BME280;6016;41.928;25.556;2023-04-20T00:02:35;98652.66;;;13.76;82.20
11912;BME280;6016;41.928;25.556;2023-04-20T00:05:03;98545.22;;;13.00;81.80
11912;BME280;6016;41.928;25.556;2023-04-20T00:07:30;98676.50;;;13.76;81.85
11912;BME280;6016;41.928;25.556;2023-04-20T00:09:59;98656.28;;;13.75;81.25
11912;BME280;6016;41.928;25.556;2023-04-20T00:12:25;98617.63;;;13.41;81.73
11912;BME280;6016;41.928;25.556;2023-04-20T00:14:52;98653.00;;;13.73;81.46
11912;BME280;6016;41.928;25.556;2023-04-20T00:17:19;98571.19;;;13.21;81.08
11912;BME280;6016;41.928;25.556;2023-04-20T00:19:46;98623.78;;;13.49;80.65
11912;BME280;6016;41.928;25.556;2023-04-20T00:22:13;98653.22;;;13.55;81.32
11912;BME280;6016;41.928;25.556;2023-04-20T00:24:40;98484.13;;;12.37;81.20
11912;BME280;6016;41.928;25.556;2023-04-20T00:27:08;98650.75;;;13.36;81.23
11912;BME280;6016;41.928;25.556;2023-04-20T00:29:36;98638.34;;;13.20;81.33
11912;BME280;6016;41.928;25.556;2023-04-20T00:32:03;98625.81;;;13.06;81.53
11912;BME280;6016;41.928;25.556;2023-04-20T00:34:30;98619.69;;;12.89;81.67
11912;BME280;6016;41.928;25.556;2023-04-20T00:36:57;98653.59;;;13.18;82.20
11912;BME280;6016;41.928;25.556;2023-04-20T00:39:24;98609.63;;;12.84;82.35
11912;BME280;6016;41.928;25.556;2023-04-20T00:41:51;98638.41;;;12.87;83.05
11912;BME280;6016;41.928;25.556;2023-04-20T00:44:19;98650.31;;;13.00;83.42
11912;BME280;6016;41.928;25.556;2023-04-20T00:46:46;98590.75;;;12.54;83.39
11912;BME280;6016;41.928;25.556;2023-04-20T00:49:13;98619.56;;;12.74;84.34
11912;BME280;6016;41.928;25.556;2023-04-20T00:51:40;98544.97;;;12.04;85.04
11912;BME280;6016;41.928;25.556;2023-04-20T00:54:07;98641.84;;;12.63;86.04
11912;BME280;6016;41.928;25.556;2023-04-20T00:56:34;98619.03;;;12.62;85.33
11912;BME280;6016;41.928;25.556;2023-04-20T00:59:01;98635.91;;;12.86;85.08
11912;BME280;6016;41.928;25.556;2023-04-20T01:01:29;98593.75;;;12.59;84.77
11912;BME280;6016;41.928;25.556;2023-04-20T01:03:56;98511.72;;;12.01;84.17
11912;BME280;6016;41.928;25.556;2023-04-20T01:06:23;98652.78;;;12.85;84.19
11912;BME280;6016;41.928;25.556;2023-04-20T01:08:50;98648.66;;;12.99;84.77
11912;BME280;6016;41.928;25.556;2023-04-20T01:11:17;98409.44;;;11.44;84.43
11912;BME280;6016;41.928;25.556;2023-04-20T01:13:44;98609.13;;;12.72;84.37
11912;BME280;6016;41.928;25.556;2023-04-20T01:16:11;98578.53;;;12.45;83.47
11912;BME280;6016;41.928;25.556;2023-04-20T01:18:44;98577.88;;;12.59;83.58
11912;BME280;6016;41.928;25.556;2023-04-20T01:21:13;98439.81;;;11.56;83.29
11912;BME280;6016;41.928;25.556;2023-04-20T01:23:42;98534.06;;;12.23;83.02
11912;BME280;6016;41.928;25.556;2023-04-20T01:26:12;98591.59;;;12.63;83.57
11912;BME280;6016;41.928;25.556;2023-04-20T01:28:40;98645.69;;;12.85;82.80
11912;BME280;6016;41.928;25.556;2023-04-20T01:31:08;98521.66;;;12.16;83.52
11912;BME280;6016;41.928;25.556;2023-04-20T01:33:36;98609.47;;;12.69;82.40
11912;BME280;6016;41.928;25.556;2023-04-20T01:36:03;98583.16;;;12.51;82.76
11912;BME280;6016;41.928;25.556;2023-04-20T01:38:31;98632.28;;;12.78;82.79
11912;BME280;6016;41.928;25.556;2023-04-20T01:41:00;98586.16;;;12.48;82.07
11912;BME280;6016;41.928;25.556;2023-04-20T01:43:29;98601.69;;;12.59;82.90
11912;BME280;6016;41.928;25.556;2023-04-20T01:45:55;98635.94;;;12.77;82.65
11912;BME280;6016;41.928;25.556;2023-04-20T01:48:23;98615.25;;;12.64;83.12
11912;BME280;6016;41.928;25.556;2023-04-20T01:50:50;98525.78;;;12.10;82.78
11912;BME280;6016;41.928;25.556;2023-04-20T01:53:17;98534.13;;;11.80;82.36
11912;BME280;6016;41.928;25.556;2023-04-20T01:55:44;98660.41;;;12.79;82.10
11912;BME280;6016;41.928;25.556;2023-04-20T01:58:12;98610.94;;;12.63;83.09
11912;BME280;6016;41.928;25.556;2023-04-20T02:00:39;98615.09;;;12.66;82.34
11912;BME280;6016;41.928;25.556;2023-04-20T02:03:06;98634.09;;;12.53;83.41
11912;BME280;6016;41.928;25.556;2023-04-20T02:05:33;98569.25;;;12.07;83.79
11912;BME280;6016;41.928;25.556;2023-04-20T02:08:00;98501.41;;;11.65;82.62
11912;BME280;6016;41.928;25.556;2023-04-20T02:10:27;98572.38;;;12.03;82.38
11912;BME280;6016;41.928;25.556;2023-04-20T02:12:54;98639.53;;;12.43;82.19
11912;BME280;6016;41.928;25.556;2023-04-20T02:15:22;98636.72;;;12.45;81.27
11912;BME280;6016;41.928;25.556;2023-04-20T02:17:49;98633.25;;;12.44;81.91
11912;BME280;6016;41.928;25.556;2023-04-20T02:20:17;98518.94;;;11.74;81.40
11912;BME280;6016;41.928;25.556;2023-04-20T02:22:44;98616.22;;;12.22;82.19
11912;BME280;6016;41.928;25.556;2023-04-20T02:25:12;98588.28;;;11.76;82.89
11912;BME280;6016;41.928;25.556;2023-04-20T02:27:39;98418.34;;;10.57;84.87
11912;BME280;6016;41.928;25.556;2023-04-20T02:30:07;98530.59;;;11.12;85.33
11912;BME280;6016;41.928;25.556;2023-04-20T02:32:36;98590.88;;;11.60;86.57
11912;BME280;6016;41.928;25.556;2023-04-20T02:35:03;98429.53;;;10.50;85.77
11912;BME280;6016;41.928;25.556;2023-04-20T02:37:30;98548.03;;;11.05;86.03
11912;BME280;6016;41.928;25.556;2023-04-20T02:39:57;98626.97;;;11.86;83.79
11912;BME280;6016;41.928;25.556;2023-04-20T02:42:24;98518.97;;;10.96;84.76
11912;BME280;6016;41.928;25.556;2023-04-20T02:44:51;98571.03;;;11.56;86.40
11912;BME280;6016;41.928;25.556;2023-04-20T02:47:18;98533.16;;;11.30;86.40
11912;BME280;6016;41.928;25.556;2023-04-20T02:49:46;98597.66;;;12.14;84.89
11912;BME280;6016;41.928;25.556;2023-04-20T02:52:13;98484.53;;;11.49;82.83
11912;BME280;6016;41.928;25.556;2023-04-20T02:54:40;98606.97;;;12.43;82.63
11912;BME280;6016;41.928;25.556;2023-04-20T02:57:07;98570.44;;;12.30;83.06
11912;BME280;6016;41.928;25.556;2023-04-20T02:59:35;98623.34;;;12.71;82.50
11912;BME280;6016;41.928;25.556;2023-04-20T03:02:02;98400.50;;;11.28;81.01
11912;BME280;6016;41.928;25.556;2023-04-20T03:04:29;98473.19;;;11.74;81.04
11912;BME280;6016;41.928;25.556;2023-04-20T03:06:57;98633.28;;;12.77;80.60
11912;BME280;6016;41.928;25.556;2023-04-20T03:09:24;98316.34;;;10.65;80.71
11912;BME280;6016;41.928;25.556;2023-04-20T03:11:52;98627.47;;;12.65;80.27
11912;BME280;6016;41.928;25.556;2023-04-20T03:14:19;98632.59;;;12.59;80.64
11912;BME280;6016;41.928;25.556;2023-04-20T03:16:46;98387.22;;;11.03;80.16
11912;BME280;6016;41.928;25.556;2023-04-20T03:19:13;98494.28;;;11.57;80.27
11912;BME280;6016;41.928;25.556;2023-04-20T03:21:40;98563.72;;;11.84;80.10
11912;BME280;6016;41.928;25.556;2023-04-20T03:24:08;98512.16;;;11.63;80.17
11912;BME280;6016;41.928;25.556;2023-04-20T03:26:35;98642.00;;;12.36;80.25
11912;BME280;6016;41.928;25.556;2023-04-20T03:29:02;98642.00;;;12.36;80.89
11912;BME280;6016;41.928;25.556;2023-04-20T03:31:29;98484.00;;;11.37;80.56
11912;BME280;6016;41.928;25.556;2023-04-20T03:33:56;98309.75;;;10.26;80.32
11912;BME280;6016;41.928;25.556;2023-04-20T03:36:23;98316.22;;;10.40;80.73
11912;BME280;6016;41.928;25.556;2023-04-20T03:38:50;98265.97;;;9.99;80.68
11912;BME280;6016;41.928;25.556;2023-04-20T03:41:19;98318.75;;;10.42;81.41
11912;BME280;6016;41.928;25.556;2023-04-20T03:43:46;98562.59;;;11.95;81.11
11912;BME280;6016;41.928;25.556;2023-04-20T03:46:13;98603.16;;;11.77;80.80
11912;BME280;6016;41.928;25.556;2023-04-20T03:48:40;98575.50;;;12.06;80.83
11912;BME280;6016;41.928;25.556;2023-04-20T03:51:07;98553.16;;;11.92;80.54
11912;BME280;6016;41.928;25.556;2023-04-20T03:53:34;98080.19;;;9.00;80.84
11912;BME280;6016;41.928;25.556;2023-04-20T03:56:01;98437.22;;;11.13;81.53
11912;BME280;6016;41.928;25.556;2023-04-20T03:58:29;98640.53;;;12.50;81.49
11912;BME280;6016;41.928;25.556;2023-04-20T04:01:00;98558.78;;;11.98;81.71
11912;BME280;6016;41.928;25.556;2023-04-20T04:03:27;98640.88;;;12.39;81.84
11912;BME280;6016;41.928;25.556;2023-04-20T04:05:54;98409.94;;;10.88;81.74
11912;BME280;6016;41.928;25.556;2023-04-20T04:08:21;98583.06;;;12.01;81.66
11912;BME280;6016;41.928;25.556;2023-04-20T04:10:48;98625.16;;;12.37;81.86
11912;BME280;6016;41.928;25.556;2023-04-20T04:13:14;98628.31;;;12.41;81.14
11912;BME280;6016;41.928;25.556;2023-04-20T04:15:43;98645.69;;;12.60;80.71
11912;BME280;6016;41.928;25.556;2023-04-20T04:18:09;98663.22;;;12.61;80.98
11912;BME280;6016;41.928;25.556;2023-04-20T04:20:36;98660.06;;;12.66;81.72
11912;BME280;6016;41.928;25.556;2023-04-20T04:23:04;98648.31;;;12.69;82.03
11912;BME280;6016;41.928;25.556;2023-04-20T04:25:31;98564.78;;;12.08;81.39
11912;BME280;6016;41.928;25.556;2023-04-20T04:27:58;98626.66;;;12.57;81.27
11912;BME280;6016;41.928;25.556;2023-04-20T04:30:25;98648.00;;;12.72;81.26
11912;BME280;6016;41.928;25.556;2023-04-20T04:32:53;98531.31;;;11.65;81.87
11912;BME280;6016;41.928;25.556;2023-04-20T04:35:20;98653.47;;;12.78;82.15
11912;BME280;6016;41.928;25.556;2023-04-20T04:37:47;98618.22;;;12.36;81.99
11912;BME280;6016;41.928;25.556;2023-04-20T04:40:14;98553.22;;;12.26;81.47
11912;BME280;6016;41.928;25.556;2023-04-20T04:42:42;98459.97;;;11.65;81.68
11912;BME280;6016;41.928;25.556;2023-04-20T04:45:10;98640.88;;;12.89;81.65
11912;BME280;6016;41.928;25.556;2023-04-20T04:47:38;98489.94;;;12.16;81.14
11912;BME280;6016;41.928;25.556;2023-04-20T04:50:08;98647.47;;;13.18;80.23
11912;BME280;6016;41.928;25.556;2023-04-20T04:52:35;98644.84;;;13.18;80.86
11912;BME280;6016;41.928;25.556;2023-04-20T04:55:02;98646.97;;;13.22;80.02
11912;BME280;6016;41.928;25.556;2023-04-20T04:57:32;98649.59;;;13.31;80.08
11912;BME280;6016;41.928;25.556;2023-04-20T04:59:59;98555.53;;;12.78;78.87
11912;BME280;6016;41.928;25.556;2023-04-20T05:02:26;98522.63;;;12.73;76.93
11912;BME280;6016;41.928;25.556;2023-04-20T05:04:53;98532.19;;;12.82;76.75
11912;BME280;6016;41.928;25.556;2023-04-20T05:07:21;98150.97;;;10.24;76.78
11912;BME280;6016;41.928;25.556;2023-04-20T05:09:49;98433.88;;;12.37;77.05
11912;BME280;6016;41.928;25.556;2023-04-20T05:12:16;98509.06;;;12.76;76.41
11912;BME280;6016;41.928;25.556;2023-04-20T05:14:43;98651.84;;;13.75;74.69
11912;BME280;6016;41.928;25.556;2023-04-20T05:17:10;98649.47;;;13.89;76.43
11912;BME280;6016;41.928;25.556;2023-04-20T05:19:37;98651.72;;;14.00;76.67
11912;BME280;6016;41.928;25.556;2023-04-20T05:22:04;98662.28;;;14.09;76.45
11912;BME280;6016;41.928;25.556;2023-04-20T05:24:32;98633.03;;;13.93;74.41
11912;BME280;6016;41.928;25.556;2023-04-20T05:26:59;98474.75;;;12.99;72.71
11912;BME280;6016;41.928;25.556;2023-04-20T05:29:27;98671.38;;;14.14;73.06
11912;BME280;6016;41.928;25.556;2023-04-20T05:31:54;98533.97;;;13.55;73.22
11912;BME280;6016;41.928;25.556;2023-04-20T05:34:21;98663.63;;;14.36;73.69
11912;BME280;6016;41.928;25.556;2023-04-20T05:36:48;98667.19;;;14.20;74.83
11912;BME280;6016;41.928;25.556;2023-04-20T05:39:14;98524.06;;;13.40;74.68
11912;BME280;6016;41.928;25.556;2023-04-20T05:41:43;98601.25;;;13.85;72.77
11912;BME280;6016;41.928;25.556;2023-04-20T05:44:10;98568.16;;;13.81;72.01
11912;BME280;6016;41.928;25.556;2023-04-20T05:46:37;98613.56;;;13.78;69.01
11912;BME280;6016;41.928;25.556;2023-04-20T05:49:04;98602.91;;;13.86;70.93
11912;BME280;6016;41.928;25.556;2023-04-20T05:51:31;98611.97;;;14.00;72.92
11912;BME280;6016;41.928;25.556;2023-04-20T05:53:58;98677.38;;;14.40;66.74
11912;BME280;6016;41.928;25.556;2023-04-20T05:56:25;98684.69;;;14.38;67.42
11912;BME280;6016;41.928;25.556;2023-04-20T05:58:54;98653.47;;;14.16;68.04
11912;BME280;6016;41.928;25.556;2023-04-20T06:01:21;98676.66;;;14.46;70.25
11912;BME280;6016;41.928;25.556;2023-04-20T06:03:48;98683.81;;;14.45;66.12
11912;BME280;6016;41.928;25.556;2023-04-20T06:06:15;98641.00;;;14.25;66.37
11912;BME280;6016;41.928;25.556;2023-04-20T06:08:42;98665.03;;;14.24;66.57
11912;BME280;6016;41.928;25.556;2023-04-20T06:11:09;98625.25;;;13.92;65.74
11912;BME280;6016;41.928;25.556;2023-04-20T06:13:36;98482.72;;;12.91;67.29
11912;BME280;6016;41.928;25.556;2023-04-20T06:16:05;98684.63;;;14.14;66.32
11912;BME280;6016;41.928;25.556;2023-04-20T06:18:33;98681.44;;;14.27;65.65
11912;BME280;6016;41.928;25.556;2023-04-20T06:21:01;98651.53;;;14.02;66.05
11912;BME280;6016;41.928;25.556;2023-04-20T06:23:28;98663.78;;;14.11;68.42
11912;BME280;6016;41.928;25.556;2023-04-20T06:25:55;98687.41;;;14.21;68.07
11912;BME280;6016;41.928;25.556;2023-04-20T06:28:21;98686.56;;;14.29;66.83
11912;BME280;6016;41.928;25.556;2023-04-20T06:30:48;98688.63;;;14.18;67.14
11912;BME280;6016;41.928;25.556;2023-04-20T06:33:16;98677.38;;;14.08;67.12
11912;BME280;6016;41.928;25.556;2023-04-20T06:35:43;98674.47;;;13.95;67.51
11912;BME280;6016;41.928;25.556;2023-04-20T06:38:10;98686.75;;;13.87;68.75
11912;BME280;6016;41.928;25.556;2023-04-20T06:40:37;98681.94;;;13.91;70.59
11912;BME280;6016;41.928;25.556;2023-04-20T06:43:04;98623.06;;;13.64;69.75
11912;BME280;6016;41.928;25.556;2023-04-20T06:45:30;98661.41;;;13.85;68.49
11912;BME280;6016;41.928;25.556;2023-04-20T06:47:57;98691.28;;;14.10;69.20
11912;BME280;6016;41.928;25.556;2023-04-20T06:50:25;98689.78;;;14.16;70.44
11912;BME280;6016;41.928;25.556;2023-04-20T06:52:52;98669.16;;;14.26;69.53
11912;BME280;6016;41.928;25.556;2023-04-20T06:55:19;98690.66;;;14.40;71.50
11912;BME280;6016;41.928;25.556;2023-04-20T06:57:46;98350.63;;;12.24;67.79
11912;BME280;6016;41.928;25.556;2023-04-20T07:00:14;98690.16;;;14.36;67.97
11912;BME280;6016;41.928;25.556;2023-04-20T07:02:41;98662.88;;;14.27;68.99
11912;BME280;6016;41.928;25.556;2023-04-20T07:05:09;98696.91;;;14.47;68.01
11912;BME280;6016;41.928;25.556;2023-04-20T07:07:37;98642.81;;;14.25;65.93
11912;BME280;6016;41.928;25.556;2023-04-20T07:10:05;98692.56;;;14.54;68.11
11912;BME280;6016;41.928;25.556;2023-04-20T07:12:33;98695.81;;;14.65;67.14
11912;BME280;6016;41.928;25.556;2023-04-20T07:15:01;98656.13;;;14.48;66.87
11912;BME280;6016;41.928;25.556;2023-04-20T07:17:28;98686.09;;;14.80;67.25
11912;BME280;6016;41.928;25.556;2023-04-20T07:19:55;98697.94;;;14.93;66.42
11912;BME280;6016;41.928;25.556;2023-04-20T07:22:22;98661.72;;;14.76;65.52
11912;BME280;6016;41.928;25.556;2023-04-20T07:24:50;98693.06;;;15.04;65.89
11912;BME280;6016;41.928;25.556;2023-04-20T07:27:17;98691.63;;;15.17;65.95
11912;BME280;6016;41.928;25.556;2023-04-20T07:29:44;98602.03;;;14.72;64.71
11912;BME280;6016;41.928;25.556;2023-04-20T07:32:11;98651.22;;;14.83;64.03
11912;BME280;6016;41.928;25.556;2023-04-20T07:34:38;98678.44;;;15.24;65.79
11912;BME280;6016;41.928;25.556;2023-04-20T07:37:05;98628.44;;;14.89;63.81
11912;BME280;6016;41.928;25.556;2023-04-20T07:39:32;98678.25;;;15.25;63.67
11912;BME280;6016;41.928;25.556;2023-04-20T07:42:02;98629.53;;;14.95;64.68
11912;BME280;6016;41.928;25.556;2023-04-20T07:44:29;98668.34;;;15.19;62.91
11912;BME280;6016;41.928;25.556;2023-04-20T07:46:56;98678.66;;;15.37;64.69
11912;BME280;6016;41.928;25.556;2023-04-20T07:49:23;98683.22;;;15.43;64.22
11912;BME280;6016;41.928;25.556;2023-04-20T07:51:50;98679.94;;;15.56;61.75
11912;BME280;6016;41.928;25.556;2023-04-20T07:54:17;98680.69;;;15.65;62.54
11912;BME280;6016;41.928;25.556;2023-04-20T07:56:44;98684.06;;;15.74;62.60
11912;BME280;6016;41.928;25.556;2023-04-20T07:59:12;98677.66;;;15.83;60.81
11912;BME280;6016;41.928;25.556;2023-04-20T08:01:38;98687.75;;;15.73;60.55
11912;BME280;6016;41.928;25.556;2023-04-20T08:04:05;98684.19;;;15.96;61.69
11912;BME280;6016;41.928;25.556;2023-04-20T08:06:32;98687.09;;;16.16;59.56
11912;BME280;6016;41.928;25.556;2023-04-20T08:08:59;98194.97;;;13.00;59.25
11912;BME280;6016;41.928;25.556;2023-04-20T08:11:26;98688.72;;;16.32;60.47
11912;BME280;6016;41.928;25.556;2023-04-20T08:13:53;98675.19;;;16.34;60.08
11912;BME280;6016;41.928;25.556;2023-04-20T08:16:21;98686.72;;;16.56;61.55
11912;BME280;6016;41.928;25.556;2023-04-20T08:18:48;98690.44;;;16.62;60.42
11912;BME280;6016;41.928;25.556;2023-04-20T08:21:15;98662.16;;;16.60;57.47
11912;BME280;6016;41.928;25.556;2023-04-20T08:23:42;98690.50;;;16.90;56.86
11912;BME280;6016;41.928;25.556;2023-04-20T08:26:13;98690.03;;;17.01;57.56
11912;BME280;6016;41.928;25.556;2023-04-20T08:28:40;98683.53;;;16.89;56.95
11912;BME280;6016;41.928;25.556;2023-04-20T08:31:08;98684.88;;;16.78;56.92
11912;BME280;6016;41.928;25.556;2023-04-20T08:33:37;98683.47;;;16.82;58.20
11912;BME280;6016;41.928;25.556;2023-04-20T08:36:04;98612.09;;;16.27;56.38
11912;BME280;6016;41.928;25.556;2023-04-20T08:38:30;98674.03;;;16.80;57.85
11912;BME280;6016;41.928;25.556;2023-04-20T08:40:57;98673.00;;;16.81;56.47
11912;BME280;6016;41.928;25.556;2023-04-20T08:43:24;98673.91;;;16.88;58.65
11912;BME280;6016;41.928;25.556;2023-04-20T08:45:53;98666.94;;;16.87;58.22
11912;BME280;6016;41.928;25.556;2023-04-20T08:48:24;98673.78;;;16.74;56.04
11912;BME280;6016;41.928;25.556;2023-04-20T08:50:52;98611.03;;;16.43;58.31
11912;BME280;6016;41.928;25.556;2023-04-20T08:53:20;98668.50;;;16.59;56.28
11912;BME280;6016;41.928;25.556;2023-04-20T08:55:48;98660.19;;;16.91;55.80
11912;BME280;6016;41.928;25.556;2023-04-20T08:58:15;98664.22;;;17.02;54.14
11912;BME280;6016;41.928;25.556;2023-04-20T09:00:46;98637.91;;;16.99;54.66
11912;BME280;6016;41.928;25.556;2023-04-20T09:03:13;98643.59;;;17.11;54.76
11912;BME280;6016;41.928;25.556;2023-04-20T09:05:40;98666.84;;;17.24;56.03
11912;BME280;6016;41.928;25.556;2023-04-20T09:08:08;98646.06;;;17.48;54.18
11912;BME280;6016;41.928;25.556;2023-04-20T09:10:40;98624.63;;;17.27;54.82
11912;BME280;6016;41.928;25.556;2023-04-20T09:13:07;98656.16;;;17.52;55.71
11912;BME280;6016;41.928;25.556;2023-04-20T09:15:34;98641.53;;;17.41;53.86
11912;BME280;6016;41.928;25.556;2023-04-20T09:18:10;98631.81;;;17.69;51.01
11912;BME280;6016;41.928;25.556;2023-04-20T09:20:38;98615.25;;;17.80;51.59
11912;BME280;6016;41.928;25.556;2023-04-20T09:23:14;98649.31;;;18.20;54.02
11912;BME280;6016;41.928;25.556;2023-04-20T09:25:42;98660.88;;;18.48;56.58
11912;BME280;6016;41.928;25.556;2023-04-20T09:28:11;98664.38;;;18.55;49.93
11912;BME280;6016;41.928;25.556;2023-04-20T09:30:40;98527.72;;;18.11;52.20
11912;BME280;6016;41.928;25.556;2023-04-20T09:33:07;98651.47;;;18.92;51.80
11912;BME280;6016;41.928;25.556;2023-04-20T09:35:36;98646.75;;;19.15;51.59
11912;BME280;6016;41.928;25.556;2023-04-20T09:38:05;98605.25;;;19.12;49.34
11912;BME280;6016;41.928;25.556;2023-04-20T09:40:33;98568.59;;;19.19;49.96
11912;BME280;6016;41.928;25.556;2023-04-20T09:43:03;98582.91;;;19.52;47.67
11912;BME280;6016;41.928;25.556;2023-04-20T09:45:33;98556.84;;;19.27;47.57
11912;BME280;6016;41.928;25.556;2023-04-20T09:48:00;98647.41;;;19.23;47.25
11912;BME280;6016;41.928;25.556;2023-04-20T09:50:30;98582.59;;;18.74;48.43
11912;BME280;6016;41.928;25.556;2023-04-20T09:52:59;98640.59;;;18.94;47.82
11912;BME280;6016;41.928;25.556;2023-04-20T09:55:26;98636.31;;;19.06;53.41
11912;BME280;6016;41.928;25.556;2023-04-20T09:57:57;98637.44;;;19.58;53.51
11912;BME280;6016;41.928;25.556;2023-04-20T10:00:24;98545.75;;;19.30;48.22
11912;BME280;6016;41.928;25.556;2023-04-20T10:02:51;98628.41;;;20.11;46.81
11912;BME280;6016;41.928;25.556;2023-04-20T10:05:18;98628.69;;;20.35;47.26
11912;BME280;6016;41.928;25.556;2023-04-20T10:07:46;98386.50;;;18.82;46.60
11912;BME280;6016;41.928;25.556;2023-04-20T10:10:24;98625.13;;;20.41;46.86
11912;BME280;6016;41.928;25.556;2023-04-20T10:12:52;98534.44;;;19.80;45.79
11912;BME280;6016;41.928;25.556;2023-04-20T10:15:22;98457.28;;;19.32;45.49
11912;BME280;6016;41.928;25.556;2023-04-20T10:17:52;98572.94;;;19.79;44.17
11912;BME280;6016;41.928;25.556;2023-04-20T10:20:20;98612.31;;;20.18;48.27
11912;BME280;6016;41.928;25.556;2023-04-20T10:22:49;98609.03;;;20.16;48.33
11912;BME280;6016;41.928;25.556;2023-04-20T10:25:18;98616.41;;;20.20;44.02
11912;BME280;6016;41.928;25.556;2023-04-20T10:27:53;98500.69;;;19.27;43.00
11912;BME280;6016;41.928;25.556;2023-04-20T10:30:22;98463.25;;;19.27;45.17
11912;BME280;6016;41.928;25.556;2023-04-20T10:32:49;98584.00;;;20.29;43.57
11912;BME280;6016;41.928;25.556;2023-04-20T10:35:16;98595.59;;;20.55;44.46
11912;BME280;6016;41.928;25.556;2023-04-20T10:37:46;98419.81;;;19.38;43.80
11912;BME280;6016;41.928;25.556;2023-04-20T10:40:14;98553.81;;;20.15;49.34
11912;BME280;6016;41.928;25.556;2023-04-20T10:42:41;98428.91;;;19.70;43.97
11912;BME280;6016;41.928;25.556;2023-04-20T10:45:09;98590.22;;;20.80;47.78
11912;BME280;6016;41.928;25.556;2023-04-20T10:47:37;98542.91;;;20.16;41.75
11912;BME280;6016;41.928;25.556;2023-04-20T10:50:10;98604.59;;;20.60;44.34
11912;BME280;6016;41.928;25.556;2023-04-20T10:52:39;98539.00;;;20.12;44.28
11912;BME280;6016;41.928;25.556;2023-04-20T10:55:17;98484.34;;;19.94;40.58
11912;BME280;6016;41.928;25.556;2023-04-20T10:57:44;98493.53;;;20.05;43.92
11912;BME280;6016;41.928;25.556;2023-04-20T11:00:15;98601.38;;;20.84;42.45
11912;BME280;6016;41.928;25.556;2023-04-20T11:02:51;98576.41;;;20.58;45.98
11912;BME280;6016;41.928;25.556;2023-04-20T11:05:19;98585.91;;;20.79;42.54
11912;BME280;6016;41.928;25.556;2023-04-20T11:07:50;98580.75;;;20.77;43.81
11912;BME280;6016;41.928;25.556;2023-04-20T11:10:17;98577.56;;;20.94;43.31
11912;BME280;6016;41.928;25.556;2023-04-20T11:12:45;98560.97;;;20.78;41.33
11912;BME280;6016;41.928;25.556;2023-04-20T11:15:12;98573.13;;;21.06;40.06
11912;BME280;6016;41.928;25.556;2023-04-20T11:17:38;98556.84;;;21.01;38.96
11912;BME280;6016;41.928;25.556;2023-04-20T11:20:09;98553.84;;;20.91;39.34
11912;BME280;6016;41.928;25.556;2023-04-20T11:22:39;98574.16;;;21.05;42.97
11912;BME280;6016;41.928;25.556;2023-04-20T11:25:08;98512.59;;;20.92;43.51
11912;BME280;6016;41.928;25.556;2023-04-20T11:27:36;98567.38;;;21.03;44.58
11912;BME280;6016;41.928;25.556;2023-04-20T11:30:04;98545.56;;;21.18;42.19
11912;BME280;6016;41.928;25.556;2023-04-20T11:32:33;98522.75;;;20.64;43.03
11912;BME280;6016;41.928;25.556;2023-04-20T11:35:01;98423.44;;;19.83;44.33
11912;BME280;6016;41.928;25.556;2023-04-20T11:37:32;98521.47;;;20.92;42.51
11912;BME280;6016;41.928;25.556;2023-04-20T11:40:00;98548.84;;;21.39;45.81
11912;BME280;6016;41.928;25.556;2023-04-20T11:42:29;98548.84;;;21.39;43.76
11912;BME280;6016;41.928;25.556;2023-04-20T11:44:56;98500.88;;;21.30;40.33
11912;BME280;6016;41.928;25.556;2023-04-20T11:47:23;98514.03;;;21.50;40.84
11912;BME280;6016;41.928;25.556;2023-04-20T11:49:50;98548.25;;;22.04;41.44
11912;BME280;6016;41.928;25.556;2023-04-20T11:52:16;98553.63;;;22.16;39.54
11912;BME280;6016;41.928;25.556;2023-04-20T11:54:45;98540.09;;;22.23;41.10
11912;BME280;6016;41.928;25.556;2023-04-20T11:57:11;98535.75;;;22.53;40.03
11912;BME280;6016;41.928;25.556;2023-04-20T11:59:38;98536.25;;;22.19;41.20
11912;BME280;6016;41.928;25.556;2023-04-20T12:02:07;98405.44;;;20.85;43.49
11912;BME280;6016;41.928;25.556;2023-04-20T12:04:34;98536.16;;;21.95;45.54
11912;BME280;6016;41.928;25.556;2023-04-20T12:07:00;98534.03;;;22.28;41.76
11912;BME280;6016;41.928;25.556;2023-04-20T12:09:27;98515.38;;;22.33;44.06
11912;BME280;6016;41.928;25.556;2023-04-20T12:11:56;98515.38;;;22.33;40.94
11912;BME280;6016;41.928;25.556;2023-04-20T12:14:23;98481.09;;;22.04;44.34
11912;BME280;6016;41.928;25.556;2023-04-20T12:16:50;98495.38;;;21.56;39.32
11912;BME280;6016;41.928;25.556;2023-04-20T12:19:17;98503.00;;;21.40;42.20
11912;BME280;6016;41.928;25.556;2023-04-20T12:21:44;98522.03;;;21.20;42.42
11912;BME280;6016;41.928;25.556;2023-04-20T12:24:12;98532.31;;;20.79;41.30
11912;BME280;6016;41.928;25.556;2023-04-20T12:26:39;98520.44;;;20.93;41.32
11912;BME280;6016;41.928;25.556;2023-04-20T12:29:07;98506.38;;;20.73;41.35
11912;BME280;6016;41.928;25.556;2023-04-20T12:31:34;98439.94;;;20.82;42.63
11912;BME280;6016;41.928;25.556;2023-04-20T12:34:01;98526.00;;;21.85;40.84
11912;BME280;6016;41.928;25.556;2023-04-20T12:36:28;98508.72;;;21.93;40.41
11912;BME280;6016;41.928;25.556;2023-04-20T12:38:56;98509.72;;;21.80;40.51
11912;BME280;6016;41.928;25.556;2023-04-20T12:41:23;98510.00;;;21.22;41.03
11912;BME280;6016;41.928;25.556;2023-04-20T12:43:50;98506.13;;;20.81;39.75
11912;BME280;6016;41.928;25.556;2023-04-20T12:46:19;98510.22;;;20.58;40.59
11912;BME280;6016;41.928;25.556;2023-04-20T12:48:45;98509.84;;;20.55;42.19
11912;BME280;6016;41.928;25.556;2023-04-20T12:51:13;98456.28;;;20.04;42.74
11912;BME280;6016;41.928;25.556;2023-04-20T12:53:40;98493.88;;;20.41;41.92
11912;BME280;6016;41.928;25.556;2023-04-20T12:56:07;98472.22;;;20.43;40.90
11912;BME280;6016;41.928;25.556;2023-04-20T12:58:34;98455.03;;;20.50;43.56
11912;BME280;6016;41.928;25.556;2023-04-20T13:01:01;98468.38;;;21.20;43.18